Time;durP1;ratioP1;P1;durP2;ratioP2;P2;SDS_P1;SDS_P2;PMS_P1;PMS_P2;Temp;Humidity;BMP_temperature;BMP_pressure;BME280_temperature;BME280_humidity;BME280_pressure;Samples;Min_cycle;Max_cycle;Signal;HPM_P1;HPM_P2
2023/08/21 00:00:06;;;;;;;6.28;2.05;;;;;;;;;;4987451;28;20959;-74
2023/08/21 00:02:32;;;;;;;5.82;2.17;;;;;;;;;;4984867;28;20047;-75
2023/08/21 00:04:58;;;;;;;6.32;2.38;;;;;;;;;;4989207;28;20034;-74
2023/08/21 00:07:24;;;;;;;7.25;2.30;;;;;;;;;;4981927;28;20038;-75
2023/08/21 00:09:51;;;;;;;5.35;1.75;;;;;;;;;;4981354;28;20625;-75
2023/08/21 00:12:17;;;;;;;6.88;1.75;;;;;;;;;;4992885;28;20050;-75
2023/08/21 00:14:43;;;;;;;3.22;1.48;;;;;;;;;;4984921;28;20480;-75
2023/08/21 00:17:09;;;;;;;4.95;1.60;;;;;;;;;;4981919;28;20031;-75
2023/08/21 00:19:35;;;;;;;6.45;1.23;;;;;;;;;;4994922;28;20034;-74
2023/08/21 00:22:01;;;;;;;4.97;1.38;;;;;;;;;;4994642;28;20496;-73
2023/08/21 00:24:27;;;;;;;3.22;1.48;;;;;;;;;;4982162;28;20042;-74
2023/08/21 00:26:53;;;;;;;6.10;2.05;;;;;;;;;;4991412;28;20100;-75
2023/08/21 00:29:19;;;;;;;5.97;1.30;;;;;;;;;;4992529;28;20163;-75
2023/08/21 00:31:45;;;;;;;5.07;1.77;;;;;;;;;;4983758;28;20068;-74
2023/08/21 00:34:11;;;;;;;4.13;1.40;;;;;;;;;;5006009;28;20110;-74
2023/08/21 00:36:37;;;;;;;5.90;2.10;;;;;;;;;;4991700;28;20031;-74
2023/08/21 00:39:03;;;;;;;6.20;1.85;;;;;;;;;;4987427;28;20046;-74
2023/08/21 00:41:29;;;;;;;5.97;1.73;;;;;;;;;;4986849;28;20429;-75
2023/08/21 00:43:55;;;;;;;10.40;2.25;;;;;;;;;;4981676;28;20038;-75
2023/08/21 00:46:21;;;;;;;5.05;1.52;;;;;;;;;;4981648;28;20472;-74
2023/08/21 00:48:47;;;;;;;4.57;1.73;;;;;;;;;;4984503;28;20157;-74
2023/08/21 00:51:16;;;;;;;5.85;1.60;;;;;;;;;;4982926;28;20038;-74
2023/08/21 00:53:42;;;;;;;4.40;1.63;;;;;;;;;;4994657;28;20052;-74
2023/08/21 00:56:09;;;;;;;5.05;1.73;;;;;;;;;;4982752;28;20368;-74
2023/08/21 00:58:35;;;;;;;4.32;2.22;;;;;;;;;;4989382;28;20114;-74
2023/08/21 01:01:02;;;;;;;6.22;1.70;;;;;;;;;;4983683;28;20482;-74
2023/08/21 01:03:28;;;;;;;8.60;1.55;;;;;;;;;;4984638;28;20475;-74
2023/08/21 01:05:55;;;;;;;6.30;1.90;;;;;;;;;;4991368;28;20035;-73
2023/08/21 01:08:21;;;;;;;10.50;1.73;;;;;;;;;;4992034;28;20026;-73
2023/08/21 01:10:59;;;;;;;5.25;1.92;;;;;;;;;;4988245;28;20381;-73
2023/08/21 01:13:27;;;;;;;8.20;1.83;;;;;;;;;;4996976;28;20096;-73
2023/08/21 01:15:54;;;;;;;8.90;2.05;;;;;;;;;;4986625;28;20038;-73
2023/08/21 01:18:21;;;;;;;3.78;1.48;;;;;;;;;;4990014;28;20487;-73
2023/08/21 01:20:48;;;;;;;4.75;1.63;;;;;;;;;;5004882;28;20061;-72
2023/08/21 01:23:30;;;;;;;3.03;1.33;;;;;;;;;;4982846;28;20133;-73
2023/08/21 01:25:56;;;;;;;5.70;1.88;;;;;;;;;;4986970;28;20019;-73
2023/08/21 01:28:22;;;;;;;5.47;1.92;;;;;;;;;;4984529;28;20042;-73
2023/08/21 01:30:49;;;;;;;5.00;1.73;;;;;;;;;;4981493;28;20144;-73
2023/08/21 01:33:16;;;;;;;7.65;1.75;;;;;;;;;;4985002;28;20043;-72
2023/08/21 01:35:43;;;;;;;8.40;1.35;;;;;;;;;;4988024;28;20485;-74
2023/08/21 01:38:09;;;;;;;5.30;1.50;;;;;;;;;;4988066;28;20041;-73
2023/08/21 01:40:35;;;;;;;4.43;1.58;;;;;;;;;;4990138;28;20045;-73
2023/08/21 01:43:01;;;;;;;3.03;1.30;;;;;;;;;;4985915;28;20392;-73
2023/08/21 01:45:27;;;;;;;7.90;1.70;;;;;;;;;;4991131;28;20033;-73
2023/08/21 01:47:53;;;;;;;6.10;2.50;;;;;;;;;;4984240;28;20117;-73
2023/08/21 01:50:19;;;;;;;2.75;1.35;;;;;;;;;;4983075;28;20149;-73
2023/08/21 01:52:45;;;;;;;5.03;1.40;;;;;;;;;;4982664;28;20039;-72
2023/08/21 01:55:11;;;;;;;5.45;1.75;;;;;;;;;;4988650;28;20030;-73
2023/08/21 01:57:37;;;;;;;6.43;1.77;;;;;;;;;;5005761;28;20027;-73
2023/08/21 02:00:04;;;;;;;4.20;1.55;;;;;;;;;;4993918;28;20026;-72
2023/08/21 02:02:30;;;;;;;6.03;1.85;;;;;;;;;;4986276;28;20109;-72
2023/08/21 02:04:56;;;;;;;5.18;1.50;;;;;;;;;;4988617;28;20050;-72
2023/08/21 02:07:22;;;;;;;8.13;2.90;;;;;;;;;;5001450;28;20031;-73
2023/08/21 02:09:48;;;;;;;6.00;1.95;;;;;;;;;;4984755;28;20038;-73
2023/08/21 02:12:14;;;;;;;4.40;1.40;;;;;;;;;;4988375;28;20042;-72
2023/08/21 02:14:40;;;;;;;3.88;1.40;;;;;;;;;;4987550;28;20066;-72
2023/08/21 02:17:06;;;;;;;3.38;1.50;;;;;;;;;;4987348;28;20026;-72
2023/08/21 02:19:32;;;;;;;4.07;1.80;;;;;;;;;;4991342;28;20034;-72
2023/08/21 02:21:58;;;;;;;5.65;1.65;;;;;;;;;;4981090;28;20389;-72
2023/08/21 02:24:24;;;;;;;9.75;2.00;;;;;;;;;;4991291;28;20026;-73
2023/08/21 02:26:50;;;;;;;3.55;1.50;;;;;;;;;;4990901;28;20425;-72
2023/08/21 02:29:16;;;;;;;4.30;1.38;;;;;;;;;;4985834;28;20042;-72
2023/08/21 02:31:42;;;;;;;4.70;1.50;;;;;;;;;;4984272;28;20508;-72
2023/08/21 02:34:08;;;;;;;6.07;1.50;;;;;;;;;;4986608;28;20043;-73
2023/08/21 02:36:34;;;;;;;6.95;1.40;;;;;;;;;;4980824;28;20222;-73
2023/08/21 02:39:00;;;;;;;6.40;1.63;;;;;;;;;;4990854;28;20026;-72
2023/08/21 02:41:26;;;;;;;3.88;1.58;;;;;;;;;;4986713;28;20045;-73
2023/08/21 02:43:52;;;;;;;3.55;2.13;;;;;;;;;;4994901;28;20469;-73
2023/08/21 02:46:18;;;;;;;5.63;1.77;;;;;;;;;;4979247;28;20030;-72
2023/08/21 02:48:44;;;;;;;7.60;1.95;;;;;;;;;;4991510;28;20030;-73
2023/08/21 02:51:10;;;;;;;5.13;1.52;;;;;;;;;;4982546;28;20529;-72
2023/08/21 02:53:36;;;;;;;4.60;1.55;;;;;;;;;;4990075;28;20089;-73
2023/08/21 02:56:02;;;;;;;5.10;1.50;;;;;;;;;;4984665;28;20038;-73
2023/08/21 02:58:28;;;;;;;3.55;1.65;;;;;;;;;;4982495;28;20528;-73
2023/08/21 03:00:54;;;;;;;4.85;1.73;;;;;;;;;;4991151;28;20105;-73
2023/08/21 03:03:20;;;;;;;10.70;2.60;;;;;;;;;;4991470;28;20034;-72
2023/08/21 03:05:46;;;;;;;5.40;2.15;;;;;;;;;;4987035;28;20038;-72
2023/08/21 03:08:13;;;;;;;5.05;1.90;;;;;;;;;;4982287;28;20050;-74
2023/08/21 03:10:39;;;;;;;3.80;2.40;;;;;;;;;;4980657;28;20038;-73
2023/08/21 03:13:05;;;;;;;3.83;2.63;;;;;;;;;;4980340;28;20041;-72
2023/08/21 03:15:31;;;;;;;4.18;2.45;;;;;;;;;;4978370;28;20038;-75
2023/08/21 03:17:57;;;;;;;4.07;2.15;;;;;;;;;;4984975;28;20089;-75
2023/08/21 03:20:23;;;;;;;4.68;2.33;;;;;;;;;;4977524;28;20033;-76
2023/08/21 03:22:49;;;;;;;8.40;2.30;;;;;;;;;;4982488;28;20463;-85
2023/08/21 03:25:15;;;;;;;2.67;2.47;;;;;;;;;;4981685;28;20027;-74
2023/08/21 03:27:44;;;;;;;3.58;2.65;;;;;;;;;;4982080;28;20092;-75
2023/08/21 03:30:10;;;;;;;5.55;2.38;;;;;;;;;;4984024;28;20029;-74
2023/08/21 03:32:36;;;;;;;4.82;2.20;;;;;;;;;;4986031;28;20038;-77
2023/08/21 03:35:03;;;;;;;6.10;3.22;;;;;;;;;;4982035;28;20100;-78
2023/08/21 03:37:29;;;;;;;5.63;2.78;;;;;;;;;;4983100;28;20054;-78
2023/08/21 03:39:55;;;;;;;7.90;2.40;;;;;;;;;;4997147;28;20108;-77
2023/08/21 03:42:21;;;;;;;3.95;2.33;;;;;;;;;;4977077;28;20044;-78
2023/08/21 03:44:49;;;;;;;6.78;3.47;;;;;;;;;;4992661;28;20034;-78
2023/08/21 03:47:15;;;;;;;6.35;2.78;;;;;;;;;;4984298;28;20517;-79
2023/08/21 03:49:42;;;;;;;4.20;2.30;;;;;;;;;;4991074;28;20092;-79
2023/08/21 03:52:08;;;;;;;4.05;2.90;;;;;;;;;;4989665;28;20034;-77
2023/08/21 03:54:34;;;;;;;5.63;2.85;;;;;;;;;;4981589;28;20042;-76
2023/08/21 03:57:00;;;;;;;5.97;2.63;;;;;;;;;;4985917;28;20034;-76
2023/08/21 03:59:27;;;;;;;5.55;2.45;;;;;;;;;;4993603;28;20920;-78
2023/08/21 04:01:53;;;;;;;3.10;2.65;;;;;;;;;;4976594;28;20067;-77
2023/08/21 04:04:19;;;;;;;5.93;3.10;;;;;;;;;;4995000;28;20171;-80
2023/08/21 04:06:45;;;;;;;6.85;2.65;;;;;;;;;;4998425;28;20077;-72
2023/08/21 04:09:11;;;;;;;8.43;3.15;;;;;;;;;;4980328;28;20432;-74
2023/08/21 04:11:38;;;;;;;5.30;2.92;;;;;;;;;;4992266;28;20049;-73
2023/08/21 04:14:04;;;;;;;5.03;2.72;;;;;;;;;;4985441;28;20042;-75
2023/08/21 04:16:30;;;;;;;5.18;2.50;;;;;;;;;;4984556;28;20458;-75
2023/08/21 04:18:56;;;;;;;3.70;1.90;;;;;;;;;;4985570;28;20042;-75
2023/08/21 04:21:23;;;;;;;4.97;2.20;;;;;;;;;;4985056;28;20120;-75
2023/08/21 04:23:49;;;;;;;6.60;2.80;;;;;;;;;;4989840;28;20065;-75
2023/08/21 04:26:15;;;;;;;4.70;2.10;;;;;;;;;;5000734;28;20042;-74
2023/08/21 04:28:41;;;;;;;7.25;3.53;;;;;;;;;;4986480;28;20117;-75
2023/08/21 04:31:07;;;;;;;5.55;2.53;;;;;;;;;;4990313;28;20035;-76
2023/08/21 04:33:34;;;;;;;6.93;2.50;;;;;;;;;;4998566;28;20034;-75
2023/08/21 04:36:00;;;;;;;7.80;2.92;;;;;;;;;;4991437;28;20038;-75
2023/08/21 04:38:26;;;;;;;5.90;2.78;;;;;;;;;;4987991;28;20045;-75
2023/08/21 04:40:52;;;;;;;5.30;2.20;;;;;;;;;;4988508;28;20049;-75
2023/08/21 04:43:18;;;;;;;6.50;2.55;;;;;;;;;;4985710;28;20485;-75
2023/08/21 04:45:49;;;;;;;9.10;2.67;;;;;;;;;;4990025;28;20031;-75
2023/08/21 04:48:15;;;;;;;3.83;1.90;;;;;;;;;;4985117;28;20030;-75
2023/08/21 04:50:41;;;;;;;6.00;2.00;;;;;;;;;;4984294;28;20150;-75
2023/08/21 04:53:07;;;;;;;4.82;2.08;;;;;;;;;;4983194;28;20073;-75
2023/08/21 04:55:33;;;;;;;3.40;2.22;;;;;;;;;;4996042;28;20042;-75
2023/08/21 04:57:59;;;;;;;7.50;2.63;;;;;;;;;;4989032;28;20034;-75
2023/08/21 05:00:25;;;;;;;5.13;2.30;;;;;;;;;;4985464;28;20547;-76
2023/08/21 05:02:51;;;;;;;5.18;2.50;;;;;;;;;;4978808;28;20122;-75
2023/08/21 05:05:17;;;;;;;6.53;2.45;;;;;;;;;;4987017;28;20041;-75
2023/08/21 05:07:43;;;;;;;3.20;1.88;;;;;;;;;;4992387;28;20057;-75
2023/08/21 05:10:09;;;;;;;4.68;2.17;;;;;;;;;;4989322;28;20035;-75
2023/08/21 05:12:35;;;;;;;6.43;2.08;;;;;;;;;;4985761;28;20376;-76
2023/08/21 05:15:01;;;;;;;8.07;2.58;;;;;;;;;;4989603;28;20036;-74
2023/08/21 05:17:28;;;;;;;5.72;2.05;;;;;;;;;;4987070;28;20481;-74
2023/08/21 05:19:54;;;;;;;5.20;1.88;;;;;;;;;;4984047;28;20050;-74
2023/08/21 05:22:20;;;;;;;4.18;2.13;;;;;;;;;;4990371;28;20066;-74
2023/08/21 05:24:46;;;;;;;3.03;1.98;;;;;;;;;;4984854;28;20045;-74
2023/08/21 05:27:12;;;;;;;3.80;2.03;;;;;;;;;;4984105;28;20081;-74
2023/08/21 05:29:38;;;;;;;7.95;2.00;;;;;;;;;;4988639;28;20499;-74
2023/08/21 05:32:04;;;;;;;4.85;1.52;;;;;;;;;;4987627;28;20133;-73
2023/08/21 05:34:30;;;;;;;3.70;1.83;;;;;;;;;;4978049;28;20039;-74
2023/08/21 05:36:56;;;;;;;6.57;2.90;;;;;;;;;;4982321;28;20145;-74
2023/08/21 05:39:22;;;;;;;5.90;2.03;;;;;;;;;;4995132;28;20080;-74
2023/08/21 05:41:48;;;;;;;8.02;2.50;;;;;;;;;;4992348;28;20041;-74
2023/08/21 05:44:14;;;;;;;10.60;3.97;;;;;;;;;;4980030;28;20022;-74
2023/08/21 05:46:40;;;;;;;7.20;4.30;;;;;;;;;;4987614;28;20047;-74
2023/08/21 05:49:07;;;;;;;5.07;3.72;;;;;;;;;;4987077;28;20034;-75
2023/08/21 05:51:33;;;;;;;10.05;2.85;;;;;;;;;;4983167;28;20419;-74
2023/08/21 05:53:59;;;;;;;8.15;2.38;;;;;;;;;;4993852;28;20042;-75
2023/08/21 05:56:25;;;;;;;8.88;2.90;;;;;;;;;;4991094;28;20068;-74
2023/08/21 05:58:51;;;;;;;7.45;3.05;;;;;;;;;;4985521;28;20030;-75
2023/08/21 06:01:17;;;;;;;6.90;2.47;;;;;;;;;;4976359;28;20275;-75
2023/08/21 06:03:44;;;;;;;7.95;3.63;;;;;;;;;;4993346;28;20069;-75
2023/08/21 06:06:11;;;;;;;7.32;4.57;;;;;;;;;;4982731;28;20042;-75
2023/08/21 06:08:37;;;;;;;5.72;3.33;;;;;;;;;;4992679;28;20157;-75
2023/08/21 06:11:03;;;;;;;11.10;3.47;;;;;;;;;;4985666;28;20082;-75
2023/08/21 06:13:29;;;;;;;5.57;2.67;;;;;;;;;;4987292;28;20185;-75
2023/08/21 06:15:55;;;;;;;6.25;2.45;;;;;;;;;;4983131;28;20571;-74
2023/08/21 06:18:21;;;;;;;7.78;3.63;;;;;;;;;;4992948;28;20037;-76
2023/08/21 06:20:47;;;;;;;6.05;2.33;;;;;;;;;;4983192;28;20197;-78
2023/08/21 06:23:13;;;;;;;7.15;2.75;;;;;;;;;;4988166;28;20052;-77
2023/08/21 06:25:39;;;;;;;8.35;2.70;;;;;;;;;;4984021;28;20093;-79
2023/08/21 06:28:05;;;;;;;6.72;2.63;;;;;;;;;;4981514;28;20034;-78
2023/08/21 06:30:31;;;;;;;9.02;3.40;;;;;;;;;;4999677;28;20077;-79
2023/08/21 06:32:57;;;;;;;7.40;2.80;;;;;;;;;;4984001;28;20612;-76
2023/08/21 06:35:23;;;;;;;52.72;34.53;;;;;;;;;;4988759;28;20030;-76
2023/08/21 06:37:49;;;;;;;47.17;29.95;;;;;;;;;;4982919;28;20499;-74
2023/08/21 06:40:15;;;;;;;21.23;8.63;;;;;;;;;;4990971;28;20084;-73
2023/08/21 06:42:41;;;;;;;12.20;2.83;;;;;;;;;;4986719;28;20026;-76
2023/08/21 06:45:08;;;;;;;6.68;2.60;;;;;;;;;;4985325;28;20472;-76
2023/08/21 06:47:34;;;;;;;5.47;2.10;;;;;;;;;;4982750;28;20137;-76
2023/08/21 06:50:02;;;;;;;9.30;3.28;;;;;;;;;;4989614;28;20161;-75
2023/08/21 06:52:28;;;;;;;7.95;3.00;;;;;;;;;;4997233;28;20124;-73
2023/08/21 06:54:54;;;;;;;10.02;3.65;;;;;;;;;;4984395;28;20058;-74
2023/08/21 06:57:20;;;;;;;5.40;2.47;;;;;;;;;;4992661;28;20030;-73
2023/08/21 06:59:46;;;;;;;16.55;6.03;;;;;;;;;;4981484;28;20038;-74
2023/08/21 07:02:12;;;;;;;15.38;7.32;;;;;;;;;;4986211;28;20041;-73
2023/08/21 07:04:38;;;;;;;11.20;3.88;;;;;;;;;;4984492;28;20499;-73
2023/08/21 07:07:04;;;;;;;7.90;3.00;;;;;;;;;;4985963;28;20057;-73
2023/08/21 07:09:30;;;;;;;8.85;3.03;;;;;;;;;;4984042;28;20062;-73
2023/08/21 07:11:56;;;;;;;25.55;16.08;;;;;;;;;;4982109;28;20042;-73
2023/08/21 07:14:23;;;;;;;9.98;5.28;;;;;;;;;;4990418;28;20084;-73
2023/08/21 07:16:49;;;;;;;19.30;10.70;;;;;;;;;;4986859;28;20164;-72
2023/08/21 07:19:15;;;;;;;8.88;2.30;;;;;;;;;;4993741;28;20455;-75
2023/08/21 07:21:41;;;;;;;8.32;2.60;;;;;;;;;;4991060;28;20034;-75
2023/08/21 07:24:08;;;;;;;8.70;2.60;;;;;;;;;;4988877;28;20100;-76
2023/08/21 07:26:34;;;;;;;9.48;2.60;;;;;;;;;;4991660;28;20475;-75
2023/08/21 07:29:00;;;;;;;8.60;2.10;;;;;;;;;;4996666;28;20125;-75
2023/08/21 07:31:26;;;;;;;8.13;2.30;;;;;;;;;;4979653;28;20122;-75
2023/08/21 07:33:52;;;;;;;8.27;2.10;;;;;;;;;;4990799;28;20039;-75
2023/08/21 07:36:18;;;;;;;12.63;2.70;;;;;;;;;;4990874;28;20037;-75
2023/08/21 07:38:44;;;;;;;7.35;1.88;;;;;;;;;;4985022;28;20034;-74
2023/08/21 07:41:11;;;;;;;6.82;3.25;;;;;;;;;;4985633;28;20061;-73
2023/08/21 07:43:38;;;;;;;10.27;2.15;;;;;;;;;;4985576;28;20408;-73
2023/08/21 07:46:04;;;;;;;10.30;2.30;;;;;;;;;;4985693;28;20037;-73
2023/08/21 07:48:31;;;;;;;8.95;2.03;;;;;;;;;;4986911;28;20030;-75
2023/08/21 07:50:57;;;;;;;7.88;2.08;;;;;;;;;;4975543;28;20047;-78
2023/08/21 07:53:23;;;;;;;5.00;1.52;;;;;;;;;;4983577;28;20042;-79
2023/08/21 07:55:49;;;;;;;7.85;1.92;;;;;;;;;;4991848;28;20081;-78
2023/08/21 07:58:15;;;;;;;5.13;1.98;;;;;;;;;;4983206;28;20030;-73
2023/08/21 08:00:44;;;;;;;10.52;5.13;;;;;;;;;;4979225;28;20523;-75
2023/08/21 08:03:11;;;;;;;13.98;6.95;;;;;;;;;;4981979;28;20491;-75
2023/08/21 08:05:38;;;;;;;11.43;4.43;;;;;;;;;;4981073;28;20033;-76
2023/08/21 08:08:04;;;;;;;6.55;1.25;;;;;;;;;;4987043;28;20027;-76
2023/08/21 08:10:30;;;;;;;5.45;1.40;;;;;;;;;;4977437;28;20152;-75
2023/08/21 08:12:56;;;;;;;6.90;1.80;;;;;;;;;;4979892;28;20563;-76
2023/08/21 08:15:23;;;;;;;8.43;1.20;;;;;;;;;;4980868;28;20031;-75
2023/08/21 08:17:53;;;;;;;7.28;1.92;;;;;;;;;;4992402;28;20117;-75
2023/08/21 08:20:19;;;;;;;6.80;1.60;;;;;;;;;;4978728;28;20073;-75
2023/08/21 08:22:45;;;;;;;9.15;1.52;;;;;;;;;;4988746;28;20042;-75
2023/08/21 08:25:11;;;;;;;9.85;2.17;;;;;;;;;;4993460;28;20088;-74
2023/08/21 08:27:37;;;;;;;6.13;1.60;;;;;;;;;;4988654;28;20033;-75
2023/08/21 08:30:04;;;;;;;5.20;1.35;;;;;;;;;;4985645;28;20073;-75
2023/08/21 08:32:30;;;;;;;7.00;1.70;;;;;;;;;;4993613;28;20038;-76
2023/08/21 08:34:56;;;;;;;8.60;1.60;;;;;;;;;;4994250;28;20061;-75
2023/08/21 08:37:22;;;;;;;5.53;1.38;;;;;;;;;;4983983;28;20567;-75
2023/08/21 08:39:48;;;;;;;8.35;1.63;;;;;;;;;;4989340;28;20109;-75
2023/08/21 08:42:15;;;;;;;6.03;1.60;;;;;;;;;;4993792;28;20039;-75
2023/08/21 08:44:41;;;;;;;11.60;1.90;;;;;;;;;;4983261;28;20058;-75
2023/08/21 08:47:11;;;;;;;7.03;1.52;;;;;;;;;;4996556;28;20124;-75
2023/08/21 08:49:40;;;;;;;6.00;1.85;;;;;;;;;;4989574;28;20392;-75
2023/08/21 08:52:06;;;;;;;8.45;1.88;;;;;;;;;;4990585;28;20502;-76
2023/08/21 08:54:33;;;;;;;10.10;2.45;;;;;;;;;;4985710;28;20046;-75
2023/08/21 08:56:59;;;;;;;8.57;2.03;;;;;;;;;;4991832;28;20037;-75
2023/08/21 08:59:25;;;;;;;6.95;2.10;;;;;;;;;;4992681;28;20058;-75
2023/08/21 09:01:51;;;;;;;8.20;1.60;;;;;;;;;;4995158;28;20089;-75
2023/08/21 09:04:17;;;;;;;6.80;1.63;;;;;;;;;;5000239;28;20096;-76
2023/08/21 09:06:43;;;;;;;6.78;1.90;;;;;;;;;;4985572;28;20428;-75
2023/08/21 09:09:12;;;;;;;10.07;1.77;;;;;;;;;;4989978;28;20511;-75
2023/08/21 09:11:43;;;;;;;6.43;1.67;;;;;;;;;;4990342;28;20054;-77
2023/08/21 09:14:10;;;;;;;7.50;2.10;;;;;;;;;;4992532;28;20034;-77
2023/08/21 09:16:36;;;;;;;7.57;2.33;;;;;;;;;;4994197;28;20030;-75
2023/08/21 09:19:02;;;;;;;11.20;2.38;;;;;;;;;;4985578;28;20390;-75
2023/08/21 09:21:28;;;;;;;9.13;1.80;;;;;;;;;;4992385;28;20049;-76
2023/08/21 09:23:58;;;;;;;11.55;2.28;;;;;;;;;;4988139;28;20050;-74
2023/08/21 09:26:24;;;;;;;6.72;2.35;;;;;;;;;;4989341;28;20376;-76
2023/08/21 09:28:51;;;;;;;8.25;1.75;;;;;;;;;;4980851;28;20041;-77
2023/08/21 09:31:37;;;;;;;4.78;1.50;;;;;;;;;;4999729;28;20029;-76
2023/08/21 09:34:07;;;;;;;5.25;1.25;;;;;;;;;;4984967;28;20041;-76
2023/08/21 09:36:33;;;;;;;6.97;1.70;;;;;;;;;;4989724;28;20484;-75
2023/08/21 09:39:00;;;;;;;10.40;1.80;;;;;;;;;;4981441;28;20114;-76
2023/08/21 09:41:26;;;;;;;5.13;1.30;;;;;;;;;;4988991;28;20121;-76
2023/08/21 09:43:53;;;;;;;7.63;1.70;;;;;;;;;;4989336;28;20026;-76
2023/08/21 09:46:25;;;;;;;6.40;1.52;;;;;;;;;;4992346;28;20029;-76
2023/08/21 09:48:55;;;;;;;9.48;2.10;;;;;;;;;;4992361;28;20065;-76
2023/08/21 09:51:21;;;;;;;36.78;27.15;;;;;;;;;;4977122;28;20461;-76
2023/08/21 09:53:50;;;;;;;8.68;1.88;;;;;;;;;;4992243;28;20453;-77
2023/08/21 09:56:19;;;;;;;7.53;2.10;;;;;;;;;;4987403;28;20100;-75
2023/08/21 09:58:46;;;;;;;6.15;1.83;;;;;;;;;;4989534;28;20030;-74
2023/08/21 10:01:14;;;;;;;8.77;1.63;;;;;;;;;;4982855;28;20580;-75
2023/08/21 10:03:40;;;;;;;6.93;1.50;;;;;;;;;;4983232;28;20019;-75
2023/08/21 10:06:08;;;;;;;5.55;1.55;;;;;;;;;;4981281;28;20110;-77
2023/08/21 10:08:38;;;;;;;5.18;1.50;;;;;;;;;;4985168;28;20037;-77
2023/08/21 10:11:05;;;;;;;9.32;1.85;;;;;;;;;;4988397;28;20185;-78
2023/08/21 10:13:33;;;;;;;7.40;1.75;;;;;;;;;;4986856;28;20622;-78
2023/08/21 10:15:59;;;;;;;8.45;1.67;;;;;;;;;;4983627;28;20229;-78
2023/08/21 10:18:29;;;;;;;7.93;3.15;;;;;;;;;;4983006;28;20054;-76
2023/08/21 10:20:55;;;;;;;8.03;2.53;;;;;;;;;;4987191;28;20058;-76
2023/08/21 10:23:25;;;;;;;8.77;2.08;;;;;;;;;;4988689;28;20049;-76
2023/08/21 10:25:55;;;;;;;5.85;1.50;;;;;;;;;;4980964;28;20066;-76
2023/08/21 10:28:22;;;;;;;5.85;1.30;;;;;;;;;;4990171;28;20030;-78
2023/08/21 10:30:48;;;;;;;5.63;1.73;;;;;;;;;;4987938;28;20023;-75
2023/08/21 10:33:14;;;;;;;5.63;1.85;;;;;;;;;;4989654;28;20630;-74
2023/08/21 10:35:40;;;;;;;7.53;1.50;;;;;;;;;;4980423;28;20449;-75
2023/08/21 10:38:07;;;;;;;8.07;2.08;;;;;;;;;;4981650;28;20121;-75
2023/08/21 10:40:33;;;;;;;6.28;1.52;;;;;;;;;;4989608;28;20069;-75
2023/08/21 10:43:00;;;;;;;5.30;1.73;;;;;;;;;;4982602;28;20026;-79
2023/08/21 10:45:26;;;;;;;5.55;1.67;;;;;;;;;;4986538;28;20117;-77
2023/08/21 10:47:52;;;;;;;5.07;1.55;;;;;;;;;;4987272;28;20407;-77
2023/08/21 10:50:18;;;;;;;10.48;1.45;;;;;;;;;;4993231;28;20080;-75
2023/08/21 10:52:45;;;;;;;7.65;1.55;;;;;;;;;;4989197;28;20092;-76
2023/08/21 10:55:15;;;;;;;4.20;1.20;;;;;;;;;;4984895;28;20475;-77
2023/08/21 10:57:41;;;;;;;6.00;1.27;;;;;;;;;;4987020;28;20041;-78
2023/08/21 11:00:11;;;;;;;8.20;2.00;;;;;;;;;;4993151;28;20080;-77
2023/08/21 11:02:41;;;;;;;6.78;1.98;;;;;;;;;;4987388;28;20042;-79
2023/08/21 11:05:08;;;;;;;7.47;1.52;;;;;;;;;;4983658;28;20042;-77
2023/08/21 11:07:38;;;;;;;6.63;2.00;;;;;;;;;;4986219;28;20066;-80
2023/08/21 11:10:05;;;;;;;3.92;0.90;;;;;;;;;;4988485;28;20038;-79
2023/08/21 11:12:31;;;;;;;6.63;1.52;;;;;;;;;;4984200;28;20042;-78
2023/08/21 11:14:57;;;;;;;2.42;1.05;;;;;;;;;;4984082;28;20049;-79
2023/08/21 11:17:23;;;;;;;5.97;1.67;;;;;;;;;;4991300;28;20026;-78
2023/08/21 11:19:50;;;;;;;10.18;1.35;;;;;;;;;;4984862;28;20072;-76
2023/08/21 11:22:16;;;;;;;7.28;2.13;;;;;;;;;;4985197;28;20463;-78
2023/08/21 11:24:43;;;;;;;4.65;1.67;;;;;;;;;;4994686;28;20121;-79
2023/08/21 11:27:10;;;;;;;8.82;1.45;;;;;;;;;;4987208;28;20030;-80
2023/08/21 11:29:38;;;;;;;7.13;1.85;;;;;;;;;;4984421;28;20031;-80
2023/08/21 11:32:04;;;;;;;4.30;1.40;;;;;;;;;;4989512;28;20502;-78
2023/08/21 11:34:32;;;;;;;6.30;1.60;;;;;;;;;;4990342;28;20046;-85
2023/08/21 11:36:58;;;;;;;6.18;1.25;;;;;;;;;;4981867;28;20034;-77
2023/08/21 11:39:29;;;;;;;6.18;1.63;;;;;;;;;;4991497;28;20033;-76
2023/08/21 11:41:59;;;;;;;4.07;1.40;;;;;;;;;;4981103;28;20038;-75
2023/08/21 11:44:25;;;;;;;5.25;1.25;;;;;;;;;;4979302;28;20054;-75
2023/08/21 11:46:55;;;;;;;5.43;1.67;;;;;;;;;;4991597;28;20557;-76
2023/08/21 11:49:23;;;;;;;4.80;1.00;;;;;;;;;;4985378;28;20041;-75
2023/08/21 11:51:49;;;;;;;4.70;1.08;;;;;;;;;;4990547;28;20334;-75
2023/08/21 11:54:18;;;;;;;3.95;1.00;;;;;;;;;;4983515;28;20499;-76
2023/08/21 11:56:44;;;;;;;5.10;1.58;;;;;;;;;;4985580;28;20034;-75
2023/08/21 11:59:10;;;;;;;3.67;1.00;;;;;;;;;;4990754;28;20661;-76
2023/08/21 12:01:36;;;;;;;6.13;1.27;;;;;;;;;;4990069;28;20034;-75
2023/08/21 12:04:15;;;;;;;5.20;1.20;;;;;;;;;;4987552;28;20121;-77
2023/08/21 12:06:44;;;;;;;6.10;0.95;;;;;;;;;;4988626;28;20034;-76
2023/08/21 12:09:10;;;;;;;5.63;1.83;;;;;;;;;;4998105;28;20085;-75
2023/08/21 12:11:38;;;;;;;3.75;1.30;;;;;;;;;;4986137;28;20038;-75
2023/08/21 12:14:04;;;;;;;5.32;0.88;;;;;;;;;;4987436;28;20066;-75
2023/08/21 12:16:30;;;;;;;3.53;0.80;;;;;;;;;;4987692;28;20398;-74
2023/08/21 12:18:59;;;;;;;4.53;1.13;;;;;;;;;;4985767;28;20483;-74
2023/08/21 12:21:25;;;;;;;4.25;0.93;;;;;;;;;;4990619;28;20042;-75
2023/08/21 12:23:51;;;;;;;5.40;0.93;;;;;;;;;;5004573;28;20190;-74
2023/08/21 12:26:23;;;;;;;3.33;0.93;;;;;;;;;;4983285;28;20083;-76
2023/08/21 12:28:49;;;;;;;3.35;0.88;;;;;;;;;;4986357;28;20051;-74
2023/08/21 12:31:15;;;;;;;5.30;1.27;;;;;;;;;;4989593;28;20030;-75
2023/08/21 12:33:41;;;;;;;3.17;0.80;;;;;;;;;;4984253;28;20129;-76
2023/08/21 12:36:11;;;;;;;3.40;1.10;;;;;;;;;;4994309;28;20034;-75
2023/08/21 12:38:37;;;;;;;4.25;1.05;;;;;;;;;;4991256;28;20042;-75
2023/08/21 12:41:03;;;;;;;4.05;0.85;;;;;;;;;;4984369;28;20038;-75
2023/08/21 12:43:29;;;;;;;1.98;0.63;;;;;;;;;;4985615;28;20062;-75
2023/08/21 12:45:56;;;;;;;4.82;0.80;;;;;;;;;;4982333;28;20073;-74
2023/08/21 12:48:22;;;;;;;3.45;0.88;;;;;;;;;;4986774;28;20069;-74
2023/08/21 12:50:48;;;;;;;4.90;0.82;;;;;;;;;;4990673;28;20061;-74
2023/08/21 12:53:14;;;;;;;4.47;1.15;;;;;;;;;;4987427;28;20104;-76
2023/08/21 12:55:40;;;;;;;3.33;0.70;;;;;;;;;;4984227;28;20485;-77
2023/08/21 12:58:06;;;;;;;5.65;0.95;;;;;;;;;;4983895;28;20158;-75
2023/08/21 13:00:32;;;;;;;3.58;0.90;;;;;;;;;;4987809;28;20161;-75
2023/08/21 13:02:58;;;;;;;5.57;1.00;;;;;;;;;;4986710;28;20037;-75
2023/08/21 13:05:24;;;;;;;2.33;0.85;;;;;;;;;;4986537;28;20492;-75
2023/08/21 13:07:50;;;;;;;5.30;0.75;;;;;;;;;;4985730;28;20030;-75
2023/08/21 13:10:16;;;;;;;2.47;0.75;;;;;;;;;;4981632;28;20102;-74
2023/08/21 13:12:43;;;;;;;4.10;0.85;;;;;;;;;;4984740;28;20172;-74
2023/08/21 13:15:09;;;;;;;6.40;1.10;;;;;;;;;;4980848;28;20109;-76
2023/08/21 13:17:36;;;;;;;3.65;1.20;;;;;;;;;;4984024;28;20177;-76
2023/08/21 13:20:02;;;;;;;4.05;0.80;;;;;;;;;;4988300;28;20041;-77
2023/08/21 13:22:28;;;;;;;4.38;0.90;;;;;;;;;;4984302;28;20049;-76
2023/08/21 13:24:54;;;;;;;5.72;0.95;;;;;;;;;;4986701;28;20042;-76
2023/08/21 13:27:20;;;;;;;8.30;1.00;;;;;;;;;;4982116;28;20030;-79
2023/08/21 13:29:46;;;;;;;3.35;1.20;;;;;;;;;;4985006;28;20119;-76
2023/08/21 13:32:12;;;;;;;10.10;3.88;;;;;;;;;;4980538;28;20046;-75
2023/08/21 13:34:38;;;;;;;8.32;5.20;;;;;;;;;;4989606;28;20042;-75
2023/08/21 13:37:04;;;;;;;5.85;2.95;;;;;;;;;;4986196;28;20745;-76
2023/08/21 13:39:30;;;;;;;5.93;1.40;;;;;;;;;;4988674;28;20111;-74
2023/08/21 13:41:57;;;;;;;5.28;0.98;;;;;;;;;;4979705;28;20616;-74
2023/08/21 13:44:23;;;;;;;3.50;1.00;;;;;;;;;;4988640;28;20038;-75
2023/08/21 13:46:49;;;;;;;5.68;1.52;;;;;;;;;;4979061;28;20616;-74
2023/08/21 13:49:15;;;;;;;2.78;0.93;;;;;;;;;;4989365;28;20034;-75
2023/08/21 13:51:41;;;;;;;4.57;1.10;;;;;;;;;;4983762;28;20064;-74
2023/08/21 13:54:07;;;;;;;5.55;1.30;;;;;;;;;;4987775;28;20042;-75
2023/08/21 13:56:33;;;;;;;8.23;1.33;;;;;;;;;;4990368;28;20045;-74
2023/08/21 13:58:59;;;;;;;3.20;0.90;;;;;;;;;;4990877;28;20065;-76
2023/08/21 14:01:25;;;;;;;5.47;1.30;;;;;;;;;;4982947;28;20030;-76
2023/08/21 14:03:51;;;;;;;5.18;1.17;;;;;;;;;;4992008;28;20042;-75
2023/08/21 14:06:18;;;;;;;4.25;1.02;;;;;;;;;;4979420;28;20035;-76
2023/08/21 14:08:44;;;;;;;5.30;1.42;;;;;;;;;;4983206;28;20380;-75
2023/08/21 14:11:10;;;;;;;3.30;1.02;;;;;;;;;;4991731;28;20817;-75
2023/08/21 14:13:36;;;;;;;6.50;1.48;;;;;;;;;;4988226;28;20447;-72
2023/08/21 14:16:02;;;;;;;6.32;2.58;;;;;;;;;;4990187;28;20053;-76
2023/08/21 14:18:28;;;;;;;5.00;2.10;;;;;;;;;;4991066;28;20125;-77
2023/08/21 14:20:54;;;;;;;6.72;1.48;;;;;;;;;;4989757;28;20073;-79
2023/08/21 14:23:20;;;;;;;6.07;1.45;;;;;;;;;;4988370;28;20677;-81
2023/08/21 14:32:00;;;;;;;10.82;2.33;;;;;;;;;;2753166;28;22825;-76
2023/08/21 14:34:30;;;;;;;6.88;1.70;;;;;;;;;;4988658;28;20046;-77
2023/08/21 14:36:56;;;;;;;9.38;2.10;;;;;;;;;;4984328;28;20030;-77
2023/08/21 14:39:23;;;;;;;5.53;1.95;;;;;;;;;;4990565;28;20376;-76
2023/08/21 14:41:53;;;;;;;5.40;1.52;;;;;;;;;;4985090;28;20042;-77